Time;durP1;ratioP1;P1;durP2;ratioP2;P2;SDS_P1;SDS_P2;PMS_P1;PMS_P2;Temp;Humidity;BMP_temperature;BMP_pressure;BME280_temperature;BME280_humidity;BME280_pressure;Samples;Min_cycle;Max_cycle;Signal;HPM_P1;HPM_P2
2023/12/06 00:00:36;;;;;;;;;8.50;6.75;;;;;;;;5073790;28;10872;-83
2023/12/06 00:03:04;;;;;;;;;6.75;4.00;;;;;;;;5074032;28;10890;-83
2023/12/06 00:05:32;;;;;;;;;7.00;7.00;;;;;;;;5072512;28;10988;-82
2023/12/06 00:08:02;;;;;;;;;8.00;8.00;;;;;;;;5079761;28;11114;-81
2023/12/06 00:10:30;;;;;;;;;5.50;5.00;;;;;;;;5079458;28;12023;-83
2023/12/06 00:12:57;;;;;;;;;8.50;8.50;;;;;;;;5070748;28;11309;-82
2023/12/06 00:15:24;;;;;;;;;5.00;5.00;;;;;;;;5064720;28;11048;-82
2023/12/06 00:17:51;;;;;;;;;11.00;4.50;;;;;;;;5070798;28;11894;-84
2023/12/06 00:20:20;;;;;;;;;8.25;6.00;;;;;;;;5064864;28;11173;-82
2023/12/06 00:22:48;;;;;;;;;9.00;3.75;;;;;;;;5069589;28;11146;-82
2023/12/06 00:25:15;;;;;;;;;8.00;6.00;;;;;;;;5069584;28;11181;-82
2023/12/06 00:27:43;;;;;;;;;9.00;7.50;;;;;;;;5069736;28;11322;-82
2023/12/06 00:30:11;;;;;;;;;4.00;3.50;;;;;;;;5069446;28;11432;-83
2023/12/06 00:32:38;;;;;;;;;9.75;6.25;;;;;;;;5070478;28;11339;-82
2023/12/06 00:35:08;;;;;;;;;7.50;7.50;;;;;;;;5070145;28;11419;-83
2023/12/06 00:37:37;;;;;;;;;7.75;7.00;;;;;;;;5070101;28;11443;-83
2023/12/06 00:40:05;;;;;;;;;6.00;6.00;;;;;;;;5070660;28;11415;-83
2023/12/06 00:42:33;;;;;;;;;8.75;7.75;;;;;;;;5071142;28;11250;-84
2023/12/06 00:45:03;;;;;;;;;6.75;5.00;;;;;;;;5070518;28;11425;-84
2023/12/06 00:47:30;;;;;;;;;6.75;6.75;;;;;;;;5070089;28;12214;-84
2023/12/06 00:49:58;;;;;;;;;4.50;4.50;;;;;;;;5070929;28;11431;-82
2023/12/06 00:52:25;;;;;;;;;8.50;7.00;;;;;;;;5071389;28;11293;-84
2023/12/06 00:54:54;;;;;;;;;9.00;8.00;;;;;;;;5070133;28;11415;-83
2023/12/06 00:57:21;;;;;;;;;7.00;6.75;;;;;;;;5070127;28;11461;-84
2023/12/06 00:59:48;;;;;;;;;11.25;8.50;;;;;;;;5068637;28;11532;-83
2023/12/06 01:02:16;;;;;;;;;7.00;7.00;;;;;;;;5069052;28;11385;-82
2023/12/06 01:04:45;;;;;;;;;7.00;6.25;;;;;;;;5069419;28;11436;-83
2023/12/06 01:07:15;;;;;;;;;9.00;9.00;;;;;;;;5057196;28;11475;-83
2023/12/06 01:09:42;;;;;;;;;7.25;7.00;;;;;;;;5065583;28;11445;-81
2023/12/06 01:12:11;;;;;;;;;8.50;5.00;;;;;;;;5068437;28;11425;-83
2023/12/06 01:14:39;;;;;;;;;9.25;7.50;;;;;;;;5069690;28;11445;-83
2023/12/06 01:17:06;;;;;;;;;6.00;6.00;;;;;;;;5068213;28;11405;-83
2023/12/06 01:19:33;;;;;;;;;11.75;7.50;;;;;;;;5068771;28;12172;-82
2023/12/06 01:22:03;;;;;;;;;7.75;7.75;;;;;;;;5070636;28;11441;-83
2023/12/06 01:24:31;;;;;;;;;6.50;6.50;;;;;;;;5070975;28;11516;-83
2023/12/06 01:27:01;;;;;;;;;8.00;6.00;;;;;;;;5073079;28;11445;-82
2023/12/06 01:29:29;;;;;;;;;9.25;7.75;;;;;;;;5073771;28;11471;-82
2023/12/06 01:31:58;;;;;;;;;8.75;7.25;;;;;;;;5070328;28;11354;-83
2023/12/06 01:34:25;;;;;;;;;9.25;7.00;;;;;;;;5065200;28;11424;-83
2023/12/06 01:36:52;;;;;;;;;3.00;3.00;;;;;;;;5072257;28;11252;-83
2023/12/06 01:39:19;;;;;;;;;7.00;7.00;;;;;;;;5070693;28;11530;-83
2023/12/06 01:41:48;;;;;;;;;6.00;6.00;;;;;;;;5065797;28;11446;-83
2023/12/06 01:44:16;;;;;;;;;6.00;6.00;;;;;;;;5070138;28;11238;-83
2023/12/06 01:46:45;;;;;;;;;6.00;6.00;;;;;;;;5070405;28;11209;-83
2023/12/06 01:49:13;;;;;;;;;9.00;8.25;;;;;;;;5072112;28;12070;-84
2023/12/06 01:51:42;;;;;;;;;8.00;6.00;;;;;;;;5072157;28;11507;-83
2023/12/06 01:54:09;;;;;;;;;8.75;6.00;;;;;;;;5070763;28;11421;-83
2023/12/06 01:56:37;;;;;;;;;7.00;7.00;;;;;;;;5066091;28;11279;-84
2023/12/06 01:59:05;;;;;;;;;9.50;6.75;;;;;;;;5069168;28;11146;-84
2023/12/06 02:01:32;;;;;;;;;6.25;4.00;;;;;;;;5068093;28;11947;-83
2023/12/06 02:04:03;;;;;;;;;8.00;8.00;;;;;;;;5068768;28;11162;-83
2023/12/06 02:06:31;;;;;;;;;8.00;6.25;;;;;;;;5069464;28;11214;-84
2023/12/06 02:09:00;;;;;;;;;6.00;3.00;;;;;;;;5068630;28;11248;-84
2023/12/06 02:11:27;;;;;;;;;7.25;4.50;;;;;;;;5069157;28;11463;-84
2023/12/06 02:13:54;;;;;;;;;8.50;5.00;;;;;;;;5068497;28;11455;-82
2023/12/06 02:16:22;;;;;;;;;7.00;7.00;;;;;;;;5073219;28;11426;-82
2023/12/06 02:18:50;;;;;;;;;3.00;3.00;;;;;;;;5075847;28;11579;-83
2023/12/06 02:21:19;;;;;;;;;4.50;4.50;;;;;;;;5067549;28;11435;-83
2023/12/06 02:23:47;;;;;;;;;4.25;4.25;;;;;;;;5068602;28;12237;-83
2023/12/06 02:26:16;;;;;;;;;5.25;5.00;;;;;;;;5068924;28;11445;-83
2023/12/06 02:28:43;;;;;;;;;5.50;5.50;;;;;;;;5067205;28;11437;-82
2023/12/06 02:31:10;;;;;;;;;5.00;5.00;;;;;;;;5068298;28;11381;-82
2023/12/06 02:33:39;;;;;;;;;4.50;4.50;;;;;;;;5068641;28;11438;-83
2023/12/06 02:36:10;;;;;;;;;9.50;6.00;;;;;;;;5059040;28;11409;-84
2023/12/06 02:38:38;;;;;;;;;11.25;7.00;;;;;;;;5070267;28;11627;-83
2023/12/06 02:41:06;;;;;;;;;6.50;5.50;;;;;;;;5070773;28;11451;-83
2023/12/06 02:43:34;;;;;;;;;8.50;6.00;;;;;;;;5068942;28;11410;-83
2023/12/06 02:46:02;;;;;;;;;7.75;6.00;;;;;;;;5068160;28;11417;-82
2023/12/06 02:48:31;;;;;;;;;8.75;7.50;;;;;;;;5068003;28;11539;-82
2023/12/06 02:51:03;;;;;;;;;7.00;6.75;;;;;;;;5071035;28;11428;-82
2023/12/06 02:53:33;;;;;;;;;6.75;6.75;;;;;;;;5081521;28;11461;-82
2023/12/06 02:56:03;;;;;;;;;8.00;6.75;;;;;;;;5089321;28;11453;-83
2023/12/06 02:58:30;;;;;;;;;7.25;5.50;;;;;;;;5081356;28;11461;-83
2023/12/06 03:01:01;;;;;;;;;7.75;7.00;;;;;;;;5072382;28;11406;-82
2023/12/06 03:03:30;;;;;;;;;7.75;7.75;;;;;;;;5070436;28;11484;-83
2023/12/06 03:05:59;;;;;;;;;6.00;4.00;;;;;;;;5072116;28;11514;-83
2023/12/06 03:08:27;;;;;;;;;6.00;6.00;;;;;;;;5072166;28;11510;-83
2023/12/06 03:10:54;;;;;;;;;8.50;7.00;;;;;;;;5072623;28;11445;-83
2023/12/06 03:13:22;;;;;;;;;8.00;6.75;;;;;;;;5073279;28;11549;-83
2023/12/06 03:15:51;;;;;;;;;6.00;6.00;;;;;;;;5069375;28;11511;-82
2023/12/06 03:18:20;;;;;;;;;7.75;7.75;;;;;;;;5076131;28;11585;-82
2023/12/06 03:20:47;;;;;;;;;7.25;6.00;;;;;;;;5072416;28;11511;-83
2023/12/06 03:23:14;;;;;;;;;6.75;6.75;;;;;;;;5065716;28;11507;-82
2023/12/06 03:25:41;;;;;;;;;8.00;6.50;;;;;;;;5073529;28;11554;-84
2023/12/06 03:28:09;;;;;;;;;9.50;8.00;;;;;;;;5061486;28;11521;-82
2023/12/06 03:30:36;;;;;;;;;9.00;6.75;;;;;;;;5072891;28;12221;-81
2023/12/06 03:33:03;;;;;;;;;6.00;6.00;;;;;;;;5073506;28;11486;-83
2023/12/06 03:35:32;;;;;;;;;7.00;7.00;;;;;;;;5072797;28;11476;-82
2023/12/06 03:37:59;;;;;;;;;9.00;5.25;;;;;;;;5074388;28;11449;-83
2023/12/06 03:40:27;;;;;;;;;14.75;9.50;;;;;;;;5075444;28;11684;-83
2023/12/06 03:42:54;;;;;;;;;9.25;9.25;;;;;;;;5073564;28;11508;-82
2023/12/06 03:45:21;;;;;;;;;11.75;10.25;;;;;;;;5070975;28;11530;-84
2023/12/06 03:47:49;;;;;;;;;8.25;8.25;;;;;;;;5071273;28;11530;-83
2023/12/06 03:50:16;;;;;;;;;11.00;11.00;;;;;;;;5070987;28;11594;-84
2023/12/06 03:52:45;;;;;;;;;13.00;12.50;;;;;;;;5071219;28;11575;-82
2023/12/06 03:55:14;;;;;;;;;14.00;10.00;;;;;;;;5070549;28;11556;-82
2023/12/06 03:57:44;;;;;;;;;13.00;10.50;;;;;;;;5071197;28;11495;-82
2023/12/06 04:00:13;;;;;;;;;8.25;7.25;;;;;;;;5069935;28;11607;-83
2023/12/06 04:02:40;;;;;;;;;9.25;9.25;;;;;;;;5069319;28;11564;-84
2023/12/06 04:05:09;;;;;;;;;7.00;7.00;;;;;;;;5075823;28;11409;-83
2023/12/06 04:07:37;;;;;;;;;5.75;5.75;;;;;;;;5076130;28;11399;-83
2023/12/06 04:10:06;;;;;;;;;8.50;6.50;;;;;;;;5070666;28;11461;-84
2023/12/06 04:12:34;;;;;;;;;8.25;6.25;;;;;;;;5070760;28;11576;-82
2023/12/06 04:15:01;;;;;;;;;6.00;4.50;;;;;;;;5059951;28;11428;-82
2023/12/06 04:17:29;;;;;;;;;8.75;7.25;;;;;;;;5068420;28;11606;-82
2023/12/06 04:19:56;;;;;;;;;7.00;7.00;;;;;;;;5070315;28;11608;-81
2023/12/06 04:22:24;;;;;;;;;6.50;6.50;;;;;;;;5070211;28;11468;-82
2023/12/06 04:24:53;;;;;;;;;12.25;7.00;;;;;;;;5072092;28;11493;-82
2023/12/06 04:27:21;;;;;;;;;8.25;8.25;;;;;;;;5072229;28;11561;-81
2023/12/06 04:29:49;;;;;;;;;8.50;6.50;;;;;;;;5071676;28;11490;-82
2023/12/06 04:32:16;;;;;;;;;6.50;6.50;;;;;;;;5069492;28;11437;-82
2023/12/06 04:34:49;;;;;;;;;6.25;6.25;;;;;;;;5070417;28;11492;-83
2023/12/06 04:37:17;;;;;;;;;8.00;8.00;;;;;;;;5069400;28;11478;-82
2023/12/06 04:39:44;;;;;;;;;6.25;6.25;;;;;;;;5070069;28;11481;-82
2023/12/06 04:42:11;;;;;;;;;8.50;7.00;;;;;;;;5070199;28;11574;-82
2023/12/06 04:44:40;;;;;;;;;10.50;8.00;;;;;;;;5069897;28;11487;-82
2023/12/06 04:47:07;;;;;;;;;10.25;7.00;;;;;;;;5078058;28;11602;-82
2023/12/06 04:49:35;;;;;;;;;8.50;6.50;;;;;;;;5070121;28;11498;-82
2023/12/06 04:52:03;;;;;;;;;6.50;6.50;;;;;;;;5069271;28;11497;-81
2023/12/06 04:54:30;;;;;;;;;7.00;7.00;;;;;;;;5070068;28;12367;-83
2023/12/06 04:56:57;;;;;;;;;10.00;7.75;;;;;;;;5069851;28;12385;-82
2023/12/06 04:59:25;;;;;;;;;9.50;9.50;;;;;;;;5070441;28;11623;-82
2023/12/06 05:01:54;;;;;;;;;14.50;7.75;;;;;;;;5069582;28;11501;-82
2023/12/06 05:04:23;;;;;;;;;7.75;6.00;;;;;;;;5072848;28;11476;-82
2023/12/06 05:06:50;;;;;;;;;11.25;10.00;;;;;;;;5077885;28;11548;-84
2023/12/06 05:09:18;;;;;;;;;7.00;7.00;;;;;;;;5073673;28;11624;-84
2023/12/06 05:11:45;;;;;;;;;8.50;6.00;;;;;;;;5072093;28;11511;-82
2023/12/06 05:14:13;;;;;;;;;6.25;6.25;;;;;;;;5069912;28;11496;-85
2023/12/06 05:16:40;;;;;;;;;7.00;7.00;;;;;;;;5072900;28;11721;-81
2023/12/06 05:19:09;;;;;;;;;10.50;7.50;;;;;;;;5064688;28;11501;-81
2023/12/06 05:21:36;;;;;;;;;7.00;7.00;;;;;;;;5072637;28;12279;-82
2023/12/06 05:24:04;;;;;;;;;10.50;9.25;;;;;;;;5069294;28;11532;-83
2023/12/06 05:26:31;;;;;;;;;6.00;6.00;;;;;;;;5071394;28;11558;-83
2023/12/06 05:29:01;;;;;;;;;8.25;6.25;;;;;;;;5072274;28;11742;-82
2023/12/06 05:31:31;;;;;;;;;7.00;7.00;;;;;;;;5071028;28;12199;-82
2023/12/06 05:33:59;;;;;;;;;7.00;7.00;;;;;;;;5069484;28;11461;-83
2023/12/06 05:36:28;;;;;;;;;6.25;6.25;;;;;;;;5069406;28;11506;-82
2023/12/06 05:38:55;;;;;;;;;9.75;9.75;;;;;;;;5068774;28;11490;-82
2023/12/06 05:41:22;;;;;;;;;7.25;7.25;;;;;;;;5076770;28;12497;-77
2023/12/06 05:43:50;;;;;;;;;10.75;10.00;;;;;;;;5072876;28;12233;-81
2023/12/06 05:46:19;;;;;;;;;8.25;6.50;;;;;;;;5067237;28;11495;-81
2023/12/06 05:48:46;;;;;;;;;7.25;6.00;;;;;;;;5050701;28;11498;-82
2023/12/06 05:51:14;;;;;;;;;7.50;7.50;;;;;;;;5067034;28;11730;-81
2023/12/06 05:53:43;;;;;;;;;8.50;7.00;;;;;;;;5065923;28;11459;-82
2023/12/06 05:56:10;;;;;;;;;6.75;6.75;;;;;;;;5067898;28;11496;-82
2023/12/06 05:58:39;;;;;;;;;7.00;7.00;;;;;;;;5068490;28;11559;-83
2023/12/06 06:01:09;;;;;;;;;10.50;7.00;;;;;;;;5066421;28;12290;-82
2023/12/06 06:03:36;;;;;;;;;6.75;6.25;;;;;;;;5068056;28;11548;-80
2023/12/06 06:06:07;;;;;;;;;5.00;5.00;;;;;;;;5067731;28;11529;-82
2023/12/06 06:08:35;;;;;;;;;8.50;6.00;;;;;;;;5059342;28;11562;-81
2023/12/06 06:11:05;;;;;;;;;11.00;8.75;;;;;;;;5067967;28;11461;-81
2023/12/06 06:13:35;;;;;;;;;9.75;9.50;;;;;;;;5068839;28;11611;-80
2023/12/06 06:16:02;;;;;;;;;8.50;8.50;;;;;;;;5068658;28;11618;-80
2023/12/06 06:18:32;;;;;;;;;8.00;6.00;;;;;;;;5070490;28;11534;-79
2023/12/06 06:21:05;;;;;;;;;7.25;7.25;;;;;;;;5067889;28;11607;-81
2023/12/06 06:23:33;;;;;;;;;8.00;7.25;;;;;;;;5068349;28;11565;-81
2023/12/06 06:26:00;;;;;;;;;6.00;6.00;;;;;;;;5069689;28;11492;-77
2023/12/06 06:28:31;;;;;;;;;11.00;8.00;;;;;;;;5071962;28;11445;-81
2023/12/06 06:31:02;;;;;;;;;9.50;8.50;;;;;;;;5070983;28;11466;-76
2023/12/06 06:33:30;;;;;;;;;7.00;7.00;;;;;;;;5071684;28;12258;-76
2023/12/06 06:36:00;;;;;;;;;7.50;7.50;;;;;;;;5071835;28;11485;-79
2023/12/06 06:38:28;;;;;;;;;9.75;9.75;;;;;;;;5071441;28;11475;-80
2023/12/06 06:40:56;;;;;;;;;7.00;7.00;;;;;;;;5072867;28;11418;-79
2023/12/06 06:43:23;;;;;;;;;6.00;6.00;;;;;;;;5070516;28;11497;-80
2023/12/06 06:45:51;;;;;;;;;7.00;7.00;;;;;;;;5071220;28;11474;-79
2023/12/06 06:48:18;;;;;;;;;7.25;6.00;;;;;;;;5070856;28;11492;-78
2023/12/06 06:50:46;;;;;;;;;10.00;10.00;;;;;;;;5072656;28;11652;-80
2023/12/06 06:53:13;;;;;;;;;10.25;9.00;;;;;;;;5072304;28;11610;-79
2023/12/06 06:55:40;;;;;;;;;10.25;7.25;;;;;;;;5073215;28;11625;-78
2023/12/06 06:58:07;;;;;;;;;9.75;6.75;;;;;;;;5073452;28;11511;-75
2023/12/06 07:00:34;;;;;;;;;7.00;7.00;;;;;;;;5062306;28;11537;-74
2023/12/06 07:03:03;;;;;;;;;9.25;7.75;;;;;;;;5062521;28;11533;-75
2023/12/06 07:05:32;;;;;;;;;13.50;10.00;;;;;;;;5063681;28;11629;-73
2023/12/06 07:08:00;;;;;;;;;8.75;6.75;;;;;;;;5065792;28;11535;-73
2023/12/06 07:10:29;;;;;;;;;9.50;6.50;;;;;;;;5073921;28;11528;-77
2023/12/06 07:12:56;;;;;;;;;7.25;6.50;;;;;;;;5069584;28;11499;-74
2023/12/06 07:15:25;;;;;;;;;13.00;9.50;;;;;;;;5063305;28;11582;-76
2023/12/06 07:17:54;;;;;;;;;5.75;5.75;;;;;;;;5070494;28;11511;-73
2023/12/06 07:20:24;;;;;;;;;7.25;6.00;;;;;;;;5070528;28;11603;-75
2023/12/06 07:22:51;;;;;;;;;10.50;7.75;;;;;;;;5070895;28;11478;-74
2023/12/06 07:25:20;;;;;;;;;11.00;9.50;;;;;;;;5070451;28;11488;-74
2023/12/06 07:27:47;;;;;;;;;11.25;11.25;;;;;;;;5070126;28;11486;-73
2023/12/06 07:30:16;;;;;;;;;10.00;10.00;;;;;;;;5069844;28;11616;-74
2023/12/06 07:32:44;;;;;;;;;10.00;9.00;;;;;;;;5069985;28;12312;-73
2023/12/06 07:35:16;;;;;;;;;8.00;8.00;;;;;;;;5082289;28;11531;-74
2023/12/06 07:37:47;;;;;;;;;12.00;8.00;;;;;;;;5070120;28;11547;-73
2023/12/06 07:40:17;;;;;;;;;12.50;10.00;;;;;;;;5069449;28;12297;-73
2023/12/06 07:42:44;;;;;;;;;15.50;11.25;;;;;;;;5070171;28;12301;-73
2023/12/06 07:45:12;;;;;;;;;10.00;9.75;;;;;;;;5069376;28;11532;-78
2023/12/06 07:47:39;;;;;;;;;7.50;7.50;;;;;;;;5070436;28;11520;-74
2023/12/06 07:50:08;;;;;;;;;11.00;11.00;;;;;;;;5069399;28;11508;-74
2023/12/06 07:52:37;;;;;;;;;10.50;7.75;;;;;;;;5070430;28;11515;-74
2023/12/06 07:55:07;;;;;;;;;11.00;9.75;;;;;;;;5069625;28;11506;-74
2023/12/06 07:57:34;;;;;;;;;10.00;9.50;;;;;;;;5070546;28;11638;-75
2023/12/06 08:00:02;;;;;;;;;15.00;11.75;;;;;;;;5069846;28;12250;-74
2023/12/06 08:02:33;;;;;;;;;12.75;12.75;;;;;;;;5069876;28;11471;-79
2023/12/06 08:05:04;;;;;;;;;10.50;10.50;;;;;;;;5069586;28;12341;-72
2023/12/06 08:07:31;;;;;;;;;14.75;14.00;;;;;;;;5070246;28;11513;-78
2023/12/06 08:10:07;;;;;;;;;11.25;10.50;;;;;;;;5069569;28;11627;-75
2023/12/06 08:12:37;;;;;;;;;11.50;11.50;;;;;;;;5069811;28;12276;-74
2023/12/06 08:15:05;;;;;;;;;14.75;12.50;;;;;;;;5070146;28;11503;-79
2023/12/06 08:17:32;;;;;;;;;11.50;11.50;;;;;;;;5068812;28;11513;-80
2023/12/06 08:20:00;;;;;;;;;12.50;12.50;;;;;;;;5069700;28;11499;-74
2023/12/06 08:22:28;;;;;;;;;11.50;10.50;;;;;;;;5069503;28;11639;-75
2023/12/06 08:24:57;;;;;;;;;14.25;14.25;;;;;;;;5070316;28;11499;-76
2023/12/06 08:27:27;;;;;;;;;12.25;12.25;;;;;;;;5072735;28;12417;-74
2023/12/06 08:29:57;;;;;;;;;16.00;10.50;;;;;;;;5079363;28;12366;-73
2023/12/06 08:32:25;;;;;;;;;12.00;12.00;;;;;;;;5072203;28;11840;-77
2023/12/06 08:34:52;;;;;;;;;11.50;9.75;;;;;;;;5069670;28;12455;-76
2023/12/06 08:37:20;;;;;;;;;10.00;10.00;;;;;;;;5069542;28;11513;-73
2023/12/06 08:39:47;;;;;;;;;9.75;9.75;;;;;;;;5062713;28;11649;-76
2023/12/06 08:42:17;;;;;;;;;8.50;8.50;;;;;;;;5070413;28;11622;-79
2023/12/06 08:44:44;;;;;;;;;10.00;10.00;;;;;;;;5071338;28;11540;-76
2023/12/06 08:47:13;;;;;;;;;11.00;8.75;;;;;;;;5071261;28;11498;-80
2023/12/06 08:49:41;;;;;;;;;13.00;11.25;;;;;;;;5072824;28;11516;-76
2023/12/06 08:52:11;;;;;;;;;13.00;11.50;;;;;;;;5062958;28;11539;-77
2023/12/06 08:54:39;;;;;;;;;14.25;11.75;;;;;;;;5068726;28;11536;-78
2023/12/06 08:57:06;;;;;;;;;14.50;12.50;;;;;;;;5072079;28;11505;-77
2023/12/06 08:59:33;;;;;;;;;18.00;11.50;;;;;;;;5073517;28;11520;-77
2023/12/06 09:02:01;;;;;;;;;11.25;10.50;;;;;;;;5071639;28;11497;-78
2023/12/06 09:04:31;;;;;;;;;11.50;11.50;;;;;;;;5059842;28;11649;-75
2023/12/06 09:07:01;;;;;;;;;18.00;14.50;;;;;;;;5066864;28;12340;-75
2023/12/06 09:09:31;;;;;;;;;10.50;10.50;;;;;;;;5066116;28;11523;-76
2023/12/06 09:12:01;;;;;;;;;8.00;8.00;;;;;;;;5068624;28;11608;-75
2023/12/06 09:14:30;;;;;;;;;16.75;11.00;;;;;;;;5068390;28;11504;-76
2023/12/06 09:17:00;;;;;;;;;12.75;11.25;;;;;;;;5066997;28;11554;-75
2023/12/06 09:19:31;;;;;;;;;16.25;16.25;;;;;;;;5067831;28;12304;-73
2023/12/06 09:21:58;;;;;;;;;16.50;12.75;;;;;;;;5068289;28;11552;-77
2023/12/06 09:24:26;;;;;;;;;15.00;15.00;;;;;;;;5068076;28;11609;-79
2023/12/06 09:26:54;;;;;;;;;15.00;14.25;;;;;;;;5068655;28;11462;-80
2023/12/06 09:29:24;;;;;;;;;16.00;12.00;;;;;;;;5067041;28;11452;-74
2023/12/06 09:31:51;;;;;;;;;16.75;13.75;;;;;;;;5067261;28;12345;-73
2023/12/06 09:34:18;;;;;;;;;17.00;15.50;;;;;;;;5066320;28;11523;-77
2023/12/06 09:36:47;;;;;;;;;11.50;11.50;;;;;;;;5068319;28;11450;-75
2023/12/06 09:39:15;;;;;;;;;13.50;13.25;;;;;;;;5067655;28;11474;-75
2023/12/06 09:41:44;;;;;;;;;15.25;13.50;;;;;;;;5068001;28;11502;-75
2023/12/06 09:44:11;;;;;;;;;16.00;15.50;;;;;;;;5068104;28;11535;-74
2023/12/06 09:46:38;;;;;;;;;16.50;16.50;;;;;;;;5067909;28;11446;-74
2023/12/06 09:49:06;;;;;;;;;14.75;11.00;;;;;;;;5067653;28;11476;-78
2023/12/06 09:51:33;;;;;;;;;12.25;12.25;;;;;;;;5068669;28;11586;-76
2023/12/06 09:54:02;;;;;;;;;16.00;13.75;;;;;;;;5069237;28;11474;-77
2023/12/06 09:56:33;;;;;;;;;16.00;13.75;;;;;;;;5070018;28;11473;-81
2023/12/06 09:59:04;;;;;;;;;15.75;12.75;;;;;;;;5067848;28;11447;-74
2023/12/06 10:01:31;;;;;;;;;12.25;12.25;;;;;;;;5070274;28;11469;-85
2023/12/06 10:04:01;;;;;;;;;14.50;13.00;;;;;;;;5067721;28;11492;-75
2023/12/06 10:06:31;;;;;;;;;15.50;13.00;;;;;;;;5068520;28;11500;-79
2023/12/06 10:08:59;;;;;;;;;14.25;14.25;;;;;;;;5059952;28;11489;-79
2023/12/06 10:11:30;;;;;;;;;14.75;13.50;;;;;;;;5067361;28;11490;-78
2023/12/06 10:13:58;;;;;;;;;13.25;11.75;;;;;;;;5067808;28;12087;-82
2023/12/06 10:16:26;;;;;;;;;17.50;13.25;;;;;;;;5066695;28;11229;-75
2023/12/06 10:18:54;;;;;;;;;14.50;14.50;;;;;;;;5067717;28;11467;-78
2023/12/06 10:21:22;;;;;;;;;14.50;13.00;;;;;;;;5067700;28;11456;-78
2023/12/06 10:23:57;;;;;;;;;18.00;15.75;;;;;;;;5067539;28;11474;-76
2023/12/06 10:26:28;;;;;;;;;12.25;11.50;;;;;;;;5068025;28;11484;-78
2023/12/06 10:28:55;;;;;;;;;13.50;12.75;;;;;;;;5068588;28;11244;-81
2023/12/06 10:31:23;;;;;;;;;11.00;11.00;;;;;;;;5068419;28;11412;-84
2023/12/06 10:33:54;;;;;;;;;16.25;15.50;;;;;;;;5066887;28;11159;-83
2023/12/06 10:36:22;;;;;;;;;11.50;10.00;;;;;;;;5060863;28;11445;-83
2023/12/06 10:38:51;;;;;;;;;12.50;12.50;;;;;;;;5072412;28;11092;-85
2023/12/06 10:41:19;;;;;;;;;14.25;11.25;;;;;;;;5065822;28;11189;-77
2023/12/06 10:43:48;;;;;;;;;12.50;12.50;;;;;;;;5073909;28;11000;-83
2023/12/06 10:46:17;;;;;;;;;12.00;10.50;;;;;;;;5073656;28;11011;-81
2023/12/06 10:48:45;;;;;;;;;19.25;15.00;;;;;;;;5062213;28;10905;-85
2023/12/06 10:51:13;;;;;;;;;20.25;17.50;;;;;;;;5073311;28;11060;-75
2023/12/06 10:53:44;;;;;;;;;15.50;14.00;;;;;;;;5071441;28;11121;-79
2023/12/06 10:56:12;;;;;;;;;69.75;55.00;;;;;;;;5070599;28;10950;-78
2023/12/06 10:58:39;;;;;;;;;32.50;29.50;;;;;;;;5070494;28;11590;-76
2023/12/06 11:01:10;;;;;;;;;28.00;21.50;;;;;;;;5070271;28;11390;-83
2023/12/06 11:03:38;;;;;;;;;17.00;13.25;;;;;;;;5068881;28;12063;-76
2023/12/06 11:06:21;;;;;;;;;14.00;12.00;;;;;;;;5067517;28;11093;-77
2023/12/06 11:09:02;;;;;;;;;45.75;38.50;;;;;;;;5066605;28;10823;-76
2023/12/06 11:11:44;;;;;;;;;18.00;17.25;;;;;;;;5066452;28;11486;-78
2023/12/06 11:14:27;;;;;;;;;20.75;19.00;;;;;;;;5064364;28;10813;-81
2023/12/06 11:17:08;;;;;;;;;13.50;12.25;;;;;;;;5070440;28;10735;-80
2023/12/06 11:19:36;;;;;;;;;22.00;19.00;;;;;;;;5071597;28;10587;-77
2023/12/06 11:22:04;;;;;;;;;17.00;13.25;;;;;;;;5070391;28;10621;-77
2023/12/06 11:24:31;;;;;;;;;37.75;34.75;;;;;;;;5067883;28;10319;-78
2023/12/06 11:26:59;;;;;;;;;23.00;20.25;;;;;;;;5070254;28;11100;-77
2023/12/06 11:29:29;;;;;;;;;18.25;15.00;;;;;;;;5070314;28;10481;-77
2023/12/06 11:32:00;;;;;;;;;17.50;15.00;;;;;;;;5070006;28;10053;-77
2023/12/06 11:34:40;;;;;;;;;15.25;14.00;;;;;;;;5070679;28;10032;-80
2023/12/06 11:37:15;;;;;;;;;12.00;12.00;;;;;;;;5070489;28;9943;-79
2023/12/06 11:39:42;;;;;;;;;17.25;17.25;;;;;;;;5070076;28;9883;-78
2023/12/06 11:42:09;;;;;;;;;12.50;11.25;;;;;;;;5069692;28;10034;-74
2023/12/06 11:44:39;;;;;;;;;13.50;12.00;;;;;;;;5067412;28;9929;-75
2023/12/06 11:47:08;;;;;;;;;16.00;16.00;;;;;;;;5076745;28;9680;-76
2023/12/06 11:49:37;;;;;;;;;15.00;15.00;;;;;;;;5071433;28;9691;-75
2023/12/06 11:52:06;;;;;;;;;13.50;12.00;;;;;;;;5069429;28;9957;-77
2023/12/06 11:54:33;;;;;;;;;12.50;12.50;;;;;;;;5070475;28;9787;-76
2023/12/06 11:57:07;;;;;;;;;14.00;12.00;;;;;;;;5069222;28;9808;-76
2023/12/06 11:59:35;;;;;;;;;11.00;11.00;;;;;;;;5069932;28;9530;-75
2023/12/06 12:02:02;;;;;;;;;14.00;14.00;;;;;;;;5060058;28;9722;-76
2023/12/06 12:04:34;;;;;;;;;14.50;14.50;;;;;;;;5069189;28;10677;-78
2023/12/06 12:07:01;;;;;;;;;13.25;13.25;;;;;;;;5079384;28;9863;-78
2023/12/06 12:09:31;;;;;;;;;14.50;13.00;;;;;;;;5069074;28;9942;-80
2023/12/06 12:12:04;;;;;;;;;13.75;12.25;;;;;;;;5060967;28;11008;-77
2023/12/06 12:14:35;;;;;;;;;12.25;12.25;;;;;;;;5073659;28;11290;-77
2023/12/06 12:17:03;;;;;;;;;14.25;10.50;;;;;;;;5070205;28;10428;-76
2023/12/06 12:19:30;;;;;;;;;14.75;12.25;;;;;;;;5069158;28;11240;-76
2023/12/06 12:22:05;;;;;;;;;10.25;10.00;;;;;;;;5069984;28;10485;-74
2023/12/06 12:24:34;;;;;;;;;13.75;13.75;;;;;;;;5067809;28;10354;-77
2023/12/06 12:27:05;;;;;;;;;12.50;11.50;;;;;;;;5069944;28;10495;-75
2023/12/06 12:29:32;;;;;;;;;11.00;11.00;;;;;;;;5067883;28;11299;-78
2023/12/06 12:32:06;;;;;;;;;11.50;11.50;;;;;;;;5066335;28;10404;-76
2023/12/06 12:34:34;;;;;;;;;12.50;9.25;;;;;;;;5071854;28;10443;-81
2023/12/06 12:37:02;;;;;;;;;12.75;11.00;;;;;;;;5072295;28;10199;-77
2023/12/06 12:39:31;;;;;;;;;9.00;9.00;;;;;;;;5073011;28;10379;-75
2023/12/06 12:42:01;;;;;;;;;8.00;8.00;;;;;;;;5060525;28;10174;-77
2023/12/06 12:44:31;;;;;;;;;12.75;12.75;;;;;;;;5069664;28;10201;-76
2023/12/06 12:47:01;;;;;;;;;7.00;7.00;;;;;;;;5069156;28;10302;-76
2023/12/06 12:49:29;;;;;;;;;12.00;10.50;;;;;;;;5069854;28;10145;-75
2023/12/06 12:51:57;;;;;;;;;8.00;8.00;;;;;;;;5070653;28;9860;-77
2023/12/06 12:54:24;;;;;;;;;9.00;9.00;;;;;;;;5061331;28;9804;-76
2023/12/06 12:56:53;;;;;;;;;8.25;7.75;;;;;;;;5068840;28;9784;-77
2023/12/06 12:59:20;;;;;;;;;7.50;7.50;;;;;;;;5068165;28;10569;-76
2023/12/06 13:01:48;;;;;;;;;8.25;6.00;;;;;;;;5068043;28;9586;-76
2023/12/06 13:04:14;;;;;;;;;10.50;9.00;;;;;;;;5077656;28;9771;-76
2023/12/06 13:06:42;;;;;;;;;7.50;6.50;;;;;;;;5066036;28;9721;-77
2023/12/06 13:09:12;;;;;;;;;12.25;7.50;;;;;;;;5068437;28;9626;-75
2023/12/06 13:11:43;;;;;;;;;9.00;5.25;;;;;;;;5068536;28;9714;-74
2023/12/06 13:14:15;;;;;;;;;10.00;5.00;;;;;;;;5066309;28;9723;-75
2023/12/06 13:16:43;;;;;;;;;9.75;7.75;;;;;;;;5068194;28;9753;-76
2023/12/06 13:19:12;;;;;;;;;6.75;6.75;;;;;;;;5067532;28;9801;-75
2023/12/06 13:21:41;;;;;;;;;7.00;7.00;;;;;;;;5069179;28;9746;-78
2023/12/06 13:24:10;;;;;;;;;6.00;6.00;;;;;;;;5068430;28;9633;-79
2023/12/06 13:26:37;;;;;;;;;8.00;6.25;;;;;;;;5068665;28;9823;-77
2023/12/06 13:29:04;;;;;;;;;7.00;7.00;;;;;;;;5066953;28;9718;-77
2023/12/06 13:31:33;;;;;;;;;8.00;7.00;;;;;;;;5069492;28;10362;-76
2023/12/06 13:34:00;;;;;;;;;8.00;7.00;;;;;;;;5066615;28;9671;-80
2023/12/06 13:36:29;;;;;;;;;7.00;7.00;;;;;;;;5068694;28;9764;-79
2023/12/06 13:38:56;;;;;;;;;9.00;9.00;;;;;;;;5068276;28;9565;-77
2023/12/06 13:41:23;;;;;;;;;12.00;10.00;;;;;;;;5068065;28;9462;-81
2023/12/06 13:43:50;;;;;;;;;9.75;8.00;;;;;;;;5068176;28;9760;-79
2023/12/06 13:46:18;;;;;;;;;7.00;7.00;;;;;;;;5067571;28;9652;-80
2023/12/06 13:48:46;;;;;;;;;8.33;8.33;;;;;;;;5068178;28;9432;-80
2023/12/06 13:51:14;;;;;;;;;8.00;6.33;;;;;;;;5067904;28;9517;-81
2023/12/06 13:53:44;;;;;;;;;6.33;6.33;;;;;;;;5068044;28;10065;-75
2023/12/06 13:56:14;;;;;;;;;9.33;8.00;;;;;;;;5068169;28;9315;-76
2023/12/06 13:58:41;;;;;;;;;6.33;6.33;;;;;;;;5068422;28;10189;-76
2023/12/06 14:01:10;;;;;;;;;8.33;7.33;;;;;;;;5067844;28;9256;-79
2023/12/06 14:03:42;;;;;;;;;11.00;11.00;;;;;;;;5069883;28;9365;-85
2023/12/06 14:06:13;;;;;;;;;12.33;11.00;;;;;;;;5070493;28;9315;-80
2023/12/06 14:08:43;;;;;;;;;10.33;8.00;;;;;;;;5072129;28;9331;-83
2023/12/06 14:11:12;;;;;;;;;11.00;11.00;;;;;;;;5069620;28;9254;-85
2023/12/06 14:13:39;;;;;;;;;8.00;8.00;;;;;;;;5071387;28;9322;-81
2023/12/06 14:16:07;;;;;;;;;10.67;10.67;;;;;;;;5069028;28;9363;-76
2023/12/06 14:18:35;;;;;;;;;12.67;12.67;;;;;;;;5069778;28;9359;-82
2023/12/06 14:21:02;;;;;;;;;10.33;10.00;;;;;;;;5068393;28;9267;-76
2023/12/06 14:23:32;;;;;;;;;12.67;12.67;;;;;;;;5070829;28;9108;-81
2023/12/06 14:26:01;;;;;;;;;12.00;12.00;;;;;;;;5071176;28;9185;-85
2023/12/06 14:28:28;;;;;;;;;11.67;9.33;;;;;;;;5070476;28;9349;-84
2023/12/06 14:30:56;;;;;;;;;11.00;11.00;;;;;;;;5068440;28;9993;-83
2023/12/06 14:33:24;;;;;;;;;10.00;10.00;;;;;;;;5069231;28;9333;-81
2023/12/06 14:35:51;;;;;;;;;12.00;9.67;;;;;;;;5066907;28;9250;-79
2023/12/06 14:38:21;;;;;;;;;7.00;5.00;;;;;;;;5067908;28;9317;-77
2023/12/06 14:40:50;;;;;;;;;8.00;8.00;;;;;;;;5066479;28;9315;-76